createdAt,value
2022-08-18T00:02:08.075Z,96.20
2022-08-18T00:04:35.999Z,96.30
2022-08-18T00:06:44.589Z,96.10
2022-08-18T00:08:53.445Z,96.10
2022-08-18T00:11:00.733Z,96.20
2022-08-18T00:13:08.011Z,96.20
2022-08-18T00:15:18.888Z,96.10
2022-08-18T00:17:27.046Z,96.10
2022-08-18T00:19:45.962Z,96.00
2022-08-18T00:21:55.380Z,95.90
2022-08-18T00:24:04.146Z,95.80
2022-08-18T00:26:11.426Z,95.80
2022-08-18T00:28:18.764Z,95.80
2022-08-18T00:30:26.255Z,95.70
2022-08-18T00:32:35.176Z,95.50
2022-08-18T00:34:42.251Z,95.20
2022-08-18T00:36:49.191Z,95.10
2022-08-18T00:38:56.370Z,95.10
2022-08-18T00:41:06.259Z,95.00
2022-08-18T00:43:18.766Z,94.90
2022-08-18T00:45:29.740Z,94.80
2022-08-18T00:47:52.297Z,94.80
2022-08-18T00:50:00.375Z,94.80
2022-08-18T00:52:08.543Z,94.70
2022-08-18T00:54:20.574Z,94.50
2022-08-18T00:56:32.928Z,94.20
2022-08-18T00:58:44.261Z,93.90
2022-08-18T01:00:53.492Z,93.60
2022-08-18T01:03:03.546Z,93.30
2022-08-18T01:05:17.172Z,93.20
2022-08-18T01:07:30.803Z,93.20
2022-08-18T01:09:38.403Z,93.20
2022-08-18T01:11:47.729Z,93.10
2022-08-18T01:13:56.349Z,92.70
2022-08-18T01:16:26.673Z,92.40
2022-08-18T01:18:50.187Z,92.20
2022-08-18T01:21:23.478Z,91.70
2022-08-18T01:23:33.675Z,91.30
2022-08-18T01:26:01.648Z,91.10
2022-08-18T01:28:09.337Z,91.10
2022-08-18T01:30:20.412Z,91.00
2022-08-18T01:32:27.803Z,91.20
2022-08-18T01:34:35.087Z,91.20
2022-08-18T01:36:44.579Z,91.00
2022-08-18T01:38:55.639Z,91.00
2022-08-18T01:41:26.111Z,91.00
2022-08-18T01:43:30.232Z,91.00
2022-08-18T01:45:37.568Z,90.90
2022-08-18T01:47:48.093Z,90.70
2022-08-18T01:49:56.331Z,90.80
2022-08-18T01:52:06.023Z,90.90
2022-08-18T01:54:17.758Z,90.90
2022-08-18T01:56:24.955Z,90.50
2022-08-18T01:58:35.153Z,90.10
2022-08-18T02:00:43.759Z,90.00
2022-08-18T02:02:57.993Z,89.70
2022-08-18T02:05:14.409Z,89.50
2022-08-18T02:07:21.647Z,89.40
2022-08-18T02:09:36.754Z,89.20
2022-08-18T02:11:44.049Z,89.10
2022-08-18T02:13:50.911Z,89.00
2022-08-18T02:15:58.258Z,88.80
2022-08-18T02:18:05.586Z,88.80
2022-08-18T02:20:15.278Z,88.90
2022-08-18T02:22:24.040Z,88.60
2022-08-18T02:24:31.285Z,88.50
2022-08-18T02:26:40.112Z,88.50
2022-08-18T02:28:47.633Z,88.00
2022-08-18T02:30:55.082Z,87.90
2022-08-18T02:33:02.817Z,87.80
2022-08-18T02:35:12.373Z,87.70
2022-08-18T02:37:19.430Z,87.70
2022-08-18T02:39:26.615Z,87.70
2022-08-18T02:41:34.308Z,87.70
2022-08-18T02:43:44.668Z,87.60
2022-08-18T02:45:52.154Z,87.50
2022-08-18T02:48:00.208Z,87.40
2022-08-18T02:50:07.705Z,86.80
2022-08-18T02:52:18.510Z,86.10
2022-08-18T02:54:27.343Z,85.70
2022-08-18T02:56:41.829Z,83.70
2022-08-18T02:58:51.632Z,83.70
2022-08-18T03:00:58.708Z,83.60
2022-08-18T03:03:06.357Z,83.10
2022-08-18T03:05:14.770Z,83.40
2022-08-18T03:07:22.511Z,83.10
2022-08-18T03:09:29.684Z,82.90
2022-08-18T03:11:36.971Z,82.80
2022-08-18T03:13:44.413Z,82.40
2022-08-18T03:15:56.793Z,81.00
2022-08-18T03:18:04.307Z,81.70
2022-08-18T03:20:13.077Z,81.70
2022-08-18T03:22:28.675Z,81.60
2022-08-18T03:24:39.218Z,81.90
2022-08-18T03:26:48.700Z,82.60
2022-08-18T03:28:57.929Z,82.40
2022-08-18T03:31:06.853Z,82.10
2022-08-18T03:33:14.134Z,81.80
2022-08-18T03:35:21.872Z,81.60
2022-08-18T03:37:29.014Z,81.60
2022-08-18T03:39:36.276Z,82.00
2022-08-18T03:41:59.589Z,82.00
2022-08-18T03:44:08.318Z,82.10
2022-08-18T03:46:18.622Z,81.90
2022-08-18T03:48:26.468Z,81.90
2022-08-18T03:50:33.752Z,81.60
2022-08-18T03:52:41.429Z,80.20
2022-08-18T03:54:49.757Z,78.90
2022-08-18T03:56:57.298Z,79.40
2022-08-18T03:59:07.191Z,78.10
2022-08-18T04:01:23.674Z,79.10
2022-08-18T04:03:34.823Z,79.40
2022-08-18T04:05:44.561Z,79.80
2022-08-18T04:07:51.886Z,80.20
2022-08-18T04:09:59.180Z,79.90
2022-08-18T04:12:16.404Z,79.40
2022-08-18T04:14:27.053Z,79.50
2022-08-18T04:16:37.467Z,78.60
2022-08-18T04:18:44.694Z,78.40
2022-08-18T04:20:59.172Z,78.40
2022-08-18T04:23:07.052Z,78.20
2022-08-18T04:25:16.786Z,78.70
2022-08-18T04:27:24.692Z,79.70
2022-08-18T04:29:32.174Z,79.80
2022-08-18T04:31:41.767Z,79.10
2022-08-18T04:33:48.738Z,78.50
2022-08-18T04:35:56.279Z,78.00
2022-08-18T04:38:03.464Z,78.50
2022-08-18T04:40:15.882Z,79.30
2022-08-18T04:42:23.353Z,78.50
2022-08-18T04:44:30.898Z,78.30
2022-08-18T04:46:42.895Z,79.10
2022-08-18T04:48:50.121Z,79.10
2022-08-18T04:50:57.357Z,78.80
2022-08-18T04:53:20.666Z,77.70
2022-08-18T04:55:27.890Z,76.70
2022-08-18T04:57:35.898Z,77.50
2022-08-18T04:59:47.326Z,77.10
2022-08-18T05:01:56.197Z,77.00
2022-08-18T05:04:03.685Z,76.80
2022-08-18T05:06:11.585Z,76.40
2022-08-18T05:08:19.026Z,76.10
2022-08-18T05:10:26.005Z,75.40
2022-08-18T05:12:33.587Z,76.10
2022-08-18T05:14:41.026Z,76.60
2022-08-18T05:16:50.153Z,76.50
2022-08-18T05:19:00.869Z,76.50
2022-08-18T05:21:15.533Z,77.10
2022-08-18T05:23:23.360Z,77.60
2022-08-18T05:25:30.910Z,76.70
2022-08-18T05:27:39.269Z,76.30
2022-08-18T05:29:46.557Z,75.80
2022-08-18T05:31:55.120Z,75.50
2022-08-18T05:34:05.225Z,75.20
2022-08-18T05:36:23.630Z,75.50
2022-08-18T05:38:41.391Z,75.60
2022-08-18T05:40:51.033Z,75.00
2022-08-18T05:42:59.913Z,75.40
2022-08-18T05:45:12.065Z,75.70
2022-08-18T05:47:25.790Z,75.70
2022-08-18T05:49:35.478Z,75.10
2022-08-18T05:51:46.758Z,74.60
2022-08-18T05:54:10.937Z,73.50
2022-08-18T05:56:38.086Z,72.60
2022-08-18T05:58:49.015Z,73.00
2022-08-18T06:00:59.921Z,74.30
2022-08-18T06:03:16.173Z,75.30
2022-08-18T06:05:31.445Z,75.30
2022-08-18T06:07:42.875Z,75.40
2022-08-18T06:09:54.043Z,75.50
2022-08-18T06:12:10.039Z,75.60
2022-08-18T06:14:17.675Z,75.10
2022-08-18T06:16:31.368Z,75.80
2022-08-18T06:18:48.275Z,76.20
2022-08-18T06:21:25.401Z,76.40
2022-08-18T06:23:39.455Z,77.00
2022-08-18T06:26:00.912Z,77.50
2022-08-18T06:28:14.340Z,77.20
2022-08-18T06:30:24.664Z,76.80
2022-08-18T06:33:10.895Z,77.20
2022-08-18T06:35:23.782Z,77.90
2022-08-18T06:37:57.364Z,78.30
2022-08-18T06:40:06.390Z,78.50
2022-08-18T06:42:13.663Z,78.80
2022-08-18T06:44:27.964Z,79.10
2022-08-18T06:46:44.568Z,79.60
2022-08-18T06:48:57.336Z,79.10
2022-08-18T06:51:08.100Z,76.70
2022-08-18T06:53:26.848Z,75.00
2022-08-18T06:55:40.391Z,74.50
2022-08-18T06:58:00.680Z,74.20
2022-08-18T07:00:24.038Z,72.70
2022-08-18T07:02:49.345Z,72.60
2022-08-18T07:05:09.018Z,71.10
2022-08-18T07:07:39.180Z,70.70
2022-08-18T07:09:50.203Z,70.70
2022-08-18T07:12:07.625Z,69.80
2022-08-18T07:14:22.431Z,69.60
2022-08-18T07:16:57.130Z,69.70
2022-08-18T07:19:11.559Z,69.30
2022-08-18T07:21:29.967Z,68.20
2022-08-18T07:23:39.762Z,68.60
2022-08-18T07:25:50.052Z,69.60
2022-08-18T07:27:58.462Z,69.90
2022-08-18T07:30:08.408Z,70.40
2022-08-18T07:32:25.225Z,70.00
2022-08-18T07:34:38.596Z,69.60
2022-08-18T07:36:51.740Z,68.80
2022-08-18T07:39:03.818Z,68.50
2022-08-18T07:41:17.710Z,68.40
2022-08-18T07:43:30.004Z,68.40
2022-08-18T07:45:41.076Z,67.60
2022-08-18T07:47:57.474Z,66.60
2022-08-18T07:50:27.014Z,66.60
2022-08-18T07:52:44.527Z,65.50
2022-08-18T07:55:06.690Z,66.20
2022-08-18T07:57:26.720Z,66.20
2022-08-18T07:59:38.258Z,66.50
2022-08-18T08:01:51.749Z,66.20
2022-08-18T08:04:07.204Z,66.00
2022-08-18T08:06:22.273Z,65.90
2022-08-18T08:08:38.883Z,65.70
2022-08-18T08:10:53.888Z,65.00
2022-08-18T08:13:13.411Z,65.40
2022-08-18T08:15:28.528Z,65.20
2022-08-18T08:17:42.470Z,65.40
2022-08-18T08:20:09.621Z,65.10
2022-08-18T08:22:22.841Z,64.40
2022-08-18T08:24:37.803Z,65.10
2022-08-18T08:26:54.716Z,66.20
2022-08-18T08:29:17.514Z,65.90
2022-08-18T08:31:38.592Z,65.10
2022-08-18T08:33:52.976Z,66.40
2022-08-18T08:36:07.894Z,66.70
2022-08-18T08:38:40.250Z,66.40
2022-08-18T08:40:54.662Z,66.20
2022-08-18T08:43:07.469Z,66.10
2022-08-18T08:45:19.567Z,66.80
2022-08-18T08:47:33.614Z,67.60
2022-08-18T08:49:45.715Z,67.80
2022-08-18T08:52:03.441Z,67.90
2022-08-18T08:54:18.199Z,68.40
2022-08-18T08:56:32.538Z,68.40
2022-08-18T08:58:46.239Z,67.70
2022-08-18T09:00:56.018Z,67.40
2022-08-18T09:03:30.738Z,68.20
2022-08-18T09:05:43.662Z,67.90
2022-08-18T09:08:26.279Z,67.60
2022-08-18T09:11:03.628Z,67.00
2022-08-18T09:13:36.154Z,68.40
2022-08-18T09:16:03.134Z,69.10
2022-08-18T09:18:49.960Z,69.40
2022-08-18T09:21:21.092Z,69.20
2022-08-18T09:23:34.217Z,68.60
2022-08-18T09:25:50.874Z,67.60
2022-08-18T09:28:12.808Z,66.50
2022-08-18T09:30:49.292Z,67.20
2022-08-18T09:35:58.562Z,67.50
2022-08-18T09:38:29.965Z,67.80
2022-08-18T09:41:03.599Z,68.10
2022-08-18T09:43:20.328Z,68.70
2022-08-18T09:45:59.864Z,68.90
2022-08-18T09:48:28.236Z,68.00
2022-08-18T09:51:02.997Z,67.80
2022-08-18T09:53:45.124Z,66.90
2022-08-18T09:56:05.448Z,67.80
2022-08-18T09:58:23.004Z,68.50
2022-08-18T10:00:34.255Z,68.10
2022-08-18T10:03:30.966Z,68.40
2022-08-18T10:05:39.877Z,68.20
2022-08-18T10:07:50.586Z,68.90
2022-08-18T10:10:58.801Z,69.40
2022-08-18T10:13:01.474Z,69.80
2022-08-18T10:15:33.012Z,70.00
2022-08-18T10:18:04.632Z,69.80
2022-08-18T10:20:29.735Z,69.90
2022-08-18T10:22:44.597Z,70.30
2022-08-18T10:27:49.396Z,70.90
2022-08-18T10:29:59.150Z,71.20
2022-08-18T10:32:25.205Z,72.00
2022-08-18T10:34:51.978Z,72.20
2022-08-18T10:37:06.477Z,71.90
2022-08-18T10:39:17.370Z,72.00
2022-08-18T10:41:31.883Z,72.00
2022-08-18T10:43:55.492Z,72.00
2022-08-18T10:46:25.345Z,72.10
2022-08-18T10:48:35.716Z,72.20
2022-08-18T10:50:57.280Z,72.30
2022-08-18T10:55:53.423Z,73.00
2022-08-18T10:58:20.627Z,73.10
2022-08-18T11:00:47.829Z,72.80
2022-08-18T11:03:29.949Z,72.90
2022-08-18T11:05:35.724Z,72.50
2022-08-18T11:07:47.871Z,72.50
2022-08-18T11:10:28.444Z,72.30
2022-08-18T11:13:09.228Z,72.20
2022-08-18T11:15:24.479Z,72.10
2022-08-18T11:17:43.127Z,72.60
2022-08-18T11:19:50.770Z,72.90
2022-08-18T11:21:58.411Z,73.00
2022-08-18T11:24:11.127Z,73.00
2022-08-18T11:26:22.454Z,73.00
2022-08-18T11:28:34.657Z,73.60
2022-08-18T11:30:47.260Z,73.60
2022-08-18T11:32:56.144Z,74.00
2022-08-18T11:35:08.533Z,74.40
2022-08-18T11:37:28.210Z,75.30
2022-08-18T11:39:58.972Z,75.10
2022-08-18T11:42:15.994Z,75.10
2022-08-18T11:44:35.985Z,75.10
2022-08-18T11:46:43.780Z,75.30
2022-08-18T11:48:59.562Z,76.20
2022-08-18T11:51:13.357Z,75.80
2022-08-18T11:53:27.092Z,75.60
2022-08-18T11:55:36.217Z,75.90
2022-08-18T11:57:58.543Z,75.60
2022-08-18T12:01:02.900Z,76.00
2022-08-18T12:03:16.665Z,76.10
2022-08-18T12:05:23.789Z,77.00
2022-08-18T12:07:34.349Z,77.20
2022-08-18T12:10:15.949Z,77.50
2022-08-18T12:12:19.639Z,77.50
2022-08-18T12:14:35.530Z,77.40
2022-08-18T12:16:46.422Z,77.00
2022-08-18T12:18:53.753Z,76.80
2022-08-18T12:21:03.288Z,76.60
2022-08-18T12:23:10.764Z,76.40
2022-08-18T12:25:24.877Z,77.00
2022-08-18T12:27:33.690Z,77.50
2022-08-18T12:29:43.481Z,77.90
2022-08-18T12:31:53.147Z,77.80
2022-08-18T12:34:01.467Z,78.30
2022-08-18T12:36:09.871Z,78.60
2022-08-18T12:38:21.557Z,78.80
2022-08-18T12:40:29.409Z,79.40
2022-08-18T12:42:37.508Z,79.70
2022-08-18T12:44:46.388Z,79.40
2022-08-18T12:46:53.969Z,79.90
2022-08-18T12:49:01.147Z,79.50
2022-08-18T12:51:14.629Z,79.30
2022-08-18T12:53:30.048Z,79.40
2022-08-18T12:55:49.931Z,80.10
2022-08-18T12:57:57.380Z,80.50
2022-08-18T13:00:09.312Z,80.60
2022-08-18T13:02:23.932Z,80.70
2022-08-18T13:04:32.946Z,80.90
2022-08-18T13:06:50.331Z,81.40
2022-08-18T13:09:16.212Z,81.90
2022-08-18T13:11:36.017Z,81.70
2022-08-18T13:13:44.336Z,82.20
2022-08-18T13:16:01.119Z,82.30
2022-08-18T13:18:08.923Z,82.40
2022-08-18T13:20:22.354Z,83.00
2022-08-18T13:22:32.223Z,83.20
2022-08-18T13:24:40.350Z,83.60
2022-08-18T13:26:49.430Z,83.80
2022-08-18T13:28:59.385Z,84.10
2022-08-18T13:31:08.909Z,84.20
2022-08-18T13:33:35.353Z,84.50
2022-08-18T13:35:44.629Z,84.90
2022-08-18T13:37:52.325Z,85.30
2022-08-18T13:39:59.378Z,85.50
2022-08-18T13:42:28.547Z,86.00
2022-08-18T13:44:36.402Z,86.70
2022-08-18T13:46:48.448Z,87.10
2022-08-18T13:48:55.476Z,87.70
2022-08-18T13:51:03.926Z,87.90
2022-08-18T13:53:15.515Z,87.90
2022-08-18T13:55:22.082Z,88.20
2022-08-18T13:57:28.952Z,89.60
2022-08-18T13:59:37.161Z,88.90
2022-08-18T14:01:56.453Z,88.70
2022-08-18T14:04:03.559Z,88.60
2022-08-18T14:06:13.013Z,88.70
2022-08-18T14:08:20.936Z,88.30
2022-08-18T14:10:27.988Z,88.30
2022-08-18T14:12:36.224Z,88.40
2022-08-18T14:14:46.531Z,88.50
2022-08-18T14:16:55.862Z,88.70
2022-08-18T14:19:22.696Z,89.40
2022-08-18T14:21:46.778Z,89.80
2022-08-18T14:24:14.322Z,90.40
2022-08-18T14:26:52.802Z,90.30
2022-08-18T14:29:00.757Z,89.90
2022-08-18T14:31:13.006Z,89.60
2022-08-18T14:33:29.211Z,89.30
2022-08-18T14:36:06.293Z,89.00
2022-08-18T14:38:17.199Z,89.30
2022-08-18T14:40:24.724Z,89.70
2022-08-18T14:42:41.148Z,89.80
2022-08-18T14:44:49.549Z,89.80
2022-08-18T14:46:58.657Z,89.90
2022-08-18T14:49:07.881Z,89.90
2022-08-18T14:51:15.330Z,90.10
2022-08-18T14:53:24.495Z,90.10
2022-08-18T14:55:34.139Z,90.10
2022-08-18T14:57:41.728Z,90.00
2022-08-18T14:59:55.767Z,90.50
2022-08-18T15:02:03.574Z,91.20
2022-08-18T15:04:19.335Z,91.60
2022-08-18T15:06:27.108Z,91.10
2022-08-18T15:08:36.349Z,91.00
2022-08-18T15:10:43.705Z,91.10
2022-08-18T15:12:56.058Z,91.70
2022-08-18T15:15:02.986Z,91.50
2022-08-18T15:17:13.157Z,91.80
2022-08-18T15:19:58.265Z,91.90
2022-08-18T15:22:04.223Z,91.60
2022-08-18T15:24:28.352Z,91.10
2022-08-18T15:26:36.957Z,90.80
2022-08-18T15:28:47.777Z,90.70
2022-08-18T15:33:31.209Z,90.70
2022-08-18T15:35:44.320Z,90.70
2022-08-18T15:37:51.617Z,91.10
2022-08-18T15:40:30.409Z,91.30
2022-08-18T15:42:38.456Z,90.50
2022-08-18T15:44:48.453Z,90.60
2022-08-18T15:46:59.585Z,90.30
2022-08-18T15:49:14.876Z,90.10
2022-08-18T15:51:24.345Z,90.00
2022-08-18T15:53:32.192Z,89.60
2022-08-18T15:55:43.164Z,89.50
2022-08-18T15:57:57.920Z,89.60
2022-08-18T16:00:05.605Z,89.90
2022-08-18T16:02:19.268Z,89.90
2022-08-18T16:04:26.629Z,89.60
2022-08-18T16:06:37.496Z,89.40
2022-08-18T16:08:46.418Z,89.60
2022-08-18T16:10:54.733Z,89.70
2022-08-18T16:13:05.703Z,89.70
2022-08-18T16:17:31.728Z,90.40
2022-08-18T16:19:39.121Z,90.70
2022-08-18T16:21:48.096Z,90.80
2022-08-18T16:23:56.821Z,91.40
2022-08-18T16:26:05.727Z,91.40
2022-08-18T16:28:13.644Z,91.60
2022-08-18T16:30:23.734Z,91.60
2022-08-18T16:32:31.071Z,91.50
2022-08-18T16:34:38.464Z,91.60
2022-08-18T16:36:47.291Z,91.60
2022-08-18T16:38:58.183Z,91.60
2022-08-18T16:41:13.576Z,91.60
2022-08-18T16:43:20.957Z,91.70
2022-08-18T16:45:28.822Z,91.50
2022-08-18T16:47:40.198Z,91.30
2022-08-18T16:49:49.779Z,91.40
2022-08-18T16:51:58.907Z,91.50
2022-08-18T16:54:06.599Z,91.70
2022-08-18T16:56:18.398Z,91.80
2022-08-18T16:58:42.117Z,91.80
2022-08-18T17:01:05.324Z,92.00
2022-08-18T17:03:29.697Z,92.30
2022-08-18T17:05:37.041Z,92.80
2022-08-18T17:07:46.213Z,93.10
2022-08-18T17:09:54.012Z,93.50
2022-08-18T17:12:01.395Z,94.00
2022-08-18T17:14:10.320Z,94.30
2022-08-18T17:16:18.680Z,94.20
2022-08-18T17:18:26.116Z,94.10
2022-08-18T17:20:33.355Z,94.10
2022-08-18T17:22:40.565Z,94.00
2022-08-18T17:24:50.535Z,94.20
2022-08-18T17:27:03.965Z,94.20
2022-08-18T17:29:23.936Z,94.30
2022-08-18T17:31:31.382Z,94.40
2022-08-18T17:33:41.883Z,94.30
2022-08-18T17:35:50.198Z,94.20
2022-08-18T17:38:02.515Z,94.30
2022-08-18T17:40:22.275Z,94.40
2022-08-18T17:42:31.711Z,94.60
2022-08-18T17:44:46.343Z,94.80
2022-08-18T17:47:01.693Z,95.00
2022-08-18T17:49:14.087Z,95.00
2022-08-18T17:51:43.412Z,95.00
2022-08-18T17:53:52.618Z,95.10
2022-08-18T17:56:06.512Z,95.30
2022-08-18T17:58:21.573Z,95.30
2022-08-18T18:00:28.909Z,95.50
2022-08-18T18:02:36.399Z,95.50
2022-08-18T18:04:45.633Z,95.60
2022-08-18T18:06:54.805Z,95.40
2022-08-18T18:09:04.700Z,95.50
2022-08-18T18:11:15.929Z,95.40
2022-08-18T18:13:29.306Z,95.40
2022-08-18T18:15:41.047Z,95.30
2022-08-18T18:17:48.128Z,95.30
2022-08-18T18:20:00.895Z,95.30
2022-08-18T18:22:11.650Z,95.30
2022-08-18T18:24:24.116Z,95.40
2022-08-18T18:26:36.769Z,95.60
2022-08-18T18:28:44.469Z,95.90
2022-08-18T18:30:51.757Z,96.10
2022-08-18T18:33:03.997Z,96.10
2022-08-18T18:35:21.060Z,96.20
2022-08-18T18:37:34.180Z,96.20
2022-08-18T18:39:41.701Z,96.20
2022-08-18T18:41:52.691Z,96.40
2022-08-18T18:44:10.727Z,96.30
2022-08-18T18:46:31.428Z,96.50
2022-08-18T18:48:51.919Z,96.50
2022-08-18T18:51:11.043Z,96.60
2022-08-18T18:53:32.150Z,96.80
2022-08-18T18:55:47.418Z,96.80
2022-08-18T18:58:10.463Z,96.70
2022-08-18T19:00:22.153Z,96.60
2022-08-18T19:02:46.396Z,96.80
2022-08-18T19:05:00.476Z,96.80
2022-08-18T19:07:20.845Z,96.60
2022-08-18T19:09:36.555Z,96.50
2022-08-18T19:11:59.347Z,96.70
2022-08-18T19:14:18.817Z,96.70
2022-08-18T19:16:30.406Z,96.60
2022-08-18T19:18:38.050Z,96.50
2022-08-18T19:22:02.396Z,96.60
2022-08-18T19:23:37.473Z,96.30
2022-08-18T19:25:53.761Z,96.30
2022-08-18T19:28:06.987Z,96.30
2022-08-18T19:30:18.822Z,96.50
2022-08-18T19:32:37.832Z,96.60
2022-08-18T19:34:51.552Z,97.00
2022-08-18T19:37:06.754Z,96.70
2022-08-18T19:39:19.604Z,96.70
2022-08-18T19:41:38.581Z,96.60
2022-08-18T19:43:53.380Z,96.60
2022-08-18T19:46:10.476Z,96.50
2022-08-18T19:48:23.206Z,96.60
2022-08-18T19:50:37.388Z,96.60
2022-08-18T19:53:00.407Z,96.70
2022-08-18T19:55:17.866Z,96.80
2022-08-18T19:57:38.054Z,97.00
2022-08-18T20:00:11.345Z,97.10
2022-08-18T20:02:41.802Z,97.20
2022-08-18T20:05:06.364Z,97.10
2022-08-18T20:07:26.917Z,97.10
2022-08-18T20:09:53.187Z,97.00
2022-08-18T20:12:13.792Z,97.20
2022-08-18T20:14:22.601Z,97.10
2022-08-18T20:16:43.252Z,97.10
2022-08-18T20:18:55.554Z,97.10
2022-08-18T20:21:41.197Z,97.10
2022-08-18T20:24:03.470Z,97.10
2022-08-18T20:26:43.470Z,97.40
2022-08-18T20:28:50.554Z,97.50
2022-08-18T20:31:07.261Z,97.60
2022-08-18T20:33:21.502Z,97.70
2022-08-18T20:35:34.163Z,98.00
2022-08-18T20:37:43.605Z,98.10
2022-08-18T20:39:55.515Z,98.20
2022-08-18T20:42:03.341Z,98.30
2022-08-18T20:44:42.776Z,98.20
2022-08-18T20:47:00.963Z,98.50
2022-08-18T20:49:23.175Z,98.60
2022-08-18T20:51:36.430Z,98.70
2022-08-18T20:54:14.070Z,98.80
2022-08-18T20:56:32.642Z,99.10
2022-08-18T20:58:58.592Z,99.30
2022-08-18T21:01:06.015Z,99.50
2022-08-18T21:03:16.842Z,99.60
2022-08-18T21:05:29.401Z,99.60
2022-08-18T21:07:41.294Z,99.60
2022-08-18T21:09:56.017Z,99.70
2022-08-18T21:12:03.438Z,99.70
2022-08-18T21:14:10.702Z,99.70
2022-08-18T21:16:38.623Z,99.70
2022-08-18T21:18:54.433Z,99.80
2022-08-18T21:21:04.074Z,99.90
2022-08-18T21:23:15.190Z,99.90
2022-08-18T21:25:22.683Z,99.90
2022-08-18T21:27:31.596Z,99.90
2022-08-18T21:29:47.442Z,99.90
2022-08-18T21:32:08.337Z,99.90
2022-08-18T21:34:19.572Z,99.90
2022-08-18T21:36:32.478Z,99.90
2022-08-18T21:38:42.011Z,99.90
2022-08-18T21:41:09.572Z,99.90
2022-08-18T21:43:35.592Z,99.90
2022-08-18T21:45:49.422Z,99.90
2022-08-18T21:48:00.659Z,99.90
2022-08-18T21:50:17.212Z,99.90
2022-08-18T21:52:27.771Z,99.90
2022-08-18T21:54:37.615Z,99.90
2022-08-18T21:56:48.844Z,99.90
2022-08-18T21:59:09.499Z,99.90
2022-08-18T22:01:23.789Z,99.90
2022-08-18T22:03:31.532Z,99.90
2022-08-18T22:05:58.994Z,99.90
2022-08-18T22:08:06.886Z,99.90
2022-08-18T22:10:43.405Z,99.90
2022-08-18T22:13:13.379Z,99.90
2022-08-18T22:15:22.862Z,99.90
2022-08-18T22:17:33.731Z,99.90
2022-08-18T22:19:40.969Z,99.90
2022-08-18T22:21:51.007Z,99.90
2022-08-18T22:24:14.367Z,99.90
2022-08-18T22:26:29.333Z,99.90
2022-08-18T22:28:37.948Z,99.90
2022-08-18T22:30:45.233Z,99.90
2022-08-18T22:32:52.407Z,99.90
2022-08-18T22:34:59.598Z,99.90
2022-08-18T22:37:11.039Z,99.90
2022-08-18T22:39:27.372Z,99.90
2022-08-18T22:41:36.870Z,99.90
2022-08-18T22:43:44.145Z,99.90
2022-08-18T22:45:51.432Z,99.90
2022-08-18T22:47:58.561Z,99.90
2022-08-18T22:50:06.046Z,99.90
2022-08-18T22:52:29.902Z,99.90
2022-08-18T22:54:38.228Z,99.90
2022-08-18T22:56:53.795Z,99.90
2022-08-18T22:59:13.564Z,99.90
2022-08-18T23:01:24.405Z,99.90
2022-08-18T23:03:31.873Z,99.90
2022-08-18T23:05:48.848Z,99.90
2022-08-18T23:07:55.931Z,99.90
2022-08-18T23:10:03.324Z,99.90
2022-08-18T23:12:17.614Z,99.90
2022-08-18T23:14:25.056Z,99.90
2022-08-18T23:16:32.741Z,99.90
2022-08-18T23:18:39.874Z,99.90
2022-08-18T23:20:48.957Z,99.90
2022-08-18T23:22:56.138Z,99.90
2022-08-18T23:25:08.781Z,99.90
2022-08-18T23:27:19.364Z,99.90
2022-08-18T23:29:26.691Z,99.90
2022-08-18T23:31:33.924Z,99.90
2022-08-18T23:33:42.692Z,99.90
2022-08-18T23:35:49.934Z,99.90
2022-08-18T23:37:57.771Z,99.90
2022-08-18T23:40:05.075Z,99.90
2022-08-18T23:42:14.342Z,99.90
2022-08-18T23:44:27.243Z,99.90
2022-08-18T23:46:36.285Z,99.90
2022-08-18T23:48:51.397Z,99.90
2022-08-18T23:51:04.066Z,99.90
2022-08-18T23:53:11.652Z,99.90
2022-08-18T23:55:18.928Z,99.90
2022-08-18T23:57:26.167Z,99.90
2022-08-18T23:59:34.930Z,99.80
